createdAt,value
2023-02-11T00:09:41.847Z,100
2023-02-11T00:10:41.877Z,100
2023-02-11T00:11:41.852Z,100
2023-02-11T00:12:41.903Z,100
2023-02-11T00:13:41.847Z,100
2023-02-11T00:15:41.874Z,100
2023-02-11T00:16:41.881Z,100
2023-02-11T00:17:41.889Z,100
2023-02-11T00:18:41.854Z,100
2023-02-11T00:19:41.853Z,100
2023-02-11T00:20:41.846Z,100
2023-02-11T00:21:41.852Z,100
2023-02-11T00:22:41.904Z,100
2023-02-11T00:23:41.845Z,100
2023-02-11T00:24:41.854Z,100
2023-02-11T00:25:50.542Z,100
2023-02-11T00:26:50.181Z,100
2023-02-11T00:27:50.179Z,100
2023-02-11T00:28:50.184Z,100
2023-02-11T00:29:50.233Z,100
2023-02-11T00:30:50.308Z,100
2023-02-11T00:31:50.349Z,100
2023-02-11T00:32:50.179Z,100
2023-02-11T00:33:50.183Z,100
2023-02-11T00:34:50.177Z,100
2023-02-11T00:35:50.536Z,100
2023-02-11T00:36:50.167Z,100
2023-02-11T00:37:50.178Z,100
2023-02-11T00:38:50.176Z,100
2023-02-11T00:39:50.259Z,100
2023-02-11T00:40:50.175Z,100
2023-02-11T00:44:37.162Z,100
2023-02-11T00:45:51.588Z,100
2023-02-11T00:54:30.151Z,100
2023-02-11T00:55:51.396Z,100
2023-02-11T00:56:40.405Z,100
2023-02-11T01:39:41.886Z,100
2023-02-11T01:40:41.881Z,100
2023-02-11T01:41:41.869Z,100
2023-02-11T01:42:41.903Z,100
2023-02-11T01:43:41.870Z,100
2023-02-11T01:44:41.865Z,100
2023-02-11T01:45:41.877Z,100
2023-02-11T01:46:41.933Z,100
2023-02-11T01:48:41.868Z,100
2023-02-11T01:49:41.990Z,100
2023-02-11T01:50:41.881Z,100
2023-02-11T01:51:41.878Z,100
2023-02-11T01:52:41.877Z,100
2023-02-11T01:53:41.868Z,100
2023-02-11T01:54:41.869Z,100
2023-02-11T01:55:50.540Z,100
2023-02-11T01:57:50.224Z,100
2023-02-11T01:58:50.205Z,100
2023-02-11T01:59:50.197Z,100
2023-02-11T02:00:50.257Z,100
2023-02-11T02:01:50.286Z,100
2023-02-11T02:02:50.217Z,100
2023-02-11T02:03:50.309Z,100
2023-02-11T02:04:50.216Z,100
2023-02-11T02:05:50.739Z,100
2023-02-11T02:06:45.701Z,100
2023-02-11T02:07:50.234Z,100
2023-02-11T02:08:50.211Z,100
2023-02-11T02:09:50.204Z,100
2023-02-11T02:10:50.240Z,100
2023-02-11T02:14:37.179Z,100
2023-02-11T02:15:51.766Z,100
2023-02-11T02:19:33.668Z,100
2023-02-11T02:24:30.165Z,99.4
2023-02-11T02:27:35.480Z,99.7
2023-02-11T02:34:44.482Z,99.9
2023-02-11T02:34:51.737Z,100
2023-02-11T02:35:34.656Z,100
2023-02-11T02:49:39.968Z,100
2023-02-11T03:16:41.983Z,100
2023-02-11T03:17:41.886Z,100
2023-02-11T03:18:41.889Z,100
2023-02-11T03:19:41.888Z,100
2023-02-11T03:20:42.270Z,100
2023-02-11T03:21:41.933Z,100
2023-02-11T03:22:41.959Z,100
2023-02-11T03:23:41.887Z,100
2023-02-11T03:24:41.885Z,100
2023-02-11T03:25:41.894Z,100
2023-02-11T03:26:41.906Z,100
2023-02-11T03:27:41.891Z,100
2023-02-11T03:28:41.899Z,100
2023-02-11T03:29:41.896Z,100
2023-02-11T03:31:50.271Z,100
2023-02-11T03:32:50.221Z,100
2023-02-11T03:33:50.274Z,100
2023-02-11T03:34:50.220Z,100
2023-02-11T03:35:50.552Z,100
2023-02-11T03:36:50.216Z,100
2023-02-11T03:37:50.223Z,100
2023-02-11T03:38:50.229Z,100
2023-02-11T03:39:50.223Z,100
2023-02-11T03:40:50.220Z,100
2023-02-11T03:41:50.230Z,100
2023-02-11T03:42:50.223Z,100
2023-02-11T03:43:50.219Z,100
2023-02-11T03:44:50.225Z,100
2023-02-11T03:45:50.567Z,100
2023-02-11T03:46:50.234Z,100
2023-02-11T03:50:37.209Z,100
2023-02-11T03:51:51.334Z,100
2023-02-11T03:55:33.686Z,100
2023-02-11T04:00:30.190Z,100
2023-02-11T04:03:35.509Z,100
2023-02-11T04:12:51.150Z,100
2023-02-11T04:13:33.835Z,100
2023-02-11T04:20:36.642Z,100
2023-02-11T04:56:41.912Z,100
2023-02-11T04:57:41.910Z,100
2023-02-11T04:59:41.916Z,100
2023-02-11T05:00:41.919Z,100
2023-02-11T05:01:42.005Z,100
2023-02-11T05:02:42.032Z,100
2023-02-11T05:03:41.925Z,100
2023-02-11T05:04:41.913Z,100
2023-02-11T05:05:41.906Z,100
2023-02-11T05:06:41.911Z,100
2023-02-11T05:08:41.913Z,100
2023-02-11T05:09:41.914Z,100
2023-02-11T05:10:41.910Z,100
2023-02-11T05:11:50.248Z,100
2023-02-11T05:12:50.258Z,100
2023-02-11T05:13:50.243Z,100
2023-02-11T05:14:50.239Z,100
2023-02-11T05:15:50.696Z,100
2023-02-11T05:16:50.314Z,100
2023-02-11T05:17:50.273Z,100
2023-02-11T05:18:52.391Z,100
2023-02-11T05:19:50.312Z,100
2023-02-11T05:20:50.248Z,100
2023-02-11T05:22:01.813Z,100
2023-02-11T05:22:50.252Z,100
2023-02-11T05:23:50.251Z,100
2023-02-11T05:24:50.251Z,100
2023-02-11T05:25:50.598Z,100
2023-02-11T05:26:50.248Z,100
2023-02-11T05:30:37.288Z,100
2023-02-11T05:31:51.351Z,100
2023-02-11T05:35:33.733Z,100
2023-02-11T05:40:30.204Z,100
2023-02-11T05:43:35.529Z,100
2023-02-11T06:28:42.384Z,100
2023-02-11T06:29:41.940Z,100
2023-02-11T06:30:41.933Z,100
2023-02-11T06:31:42.092Z,100
2023-02-11T06:32:45.155Z,100
2023-02-11T06:33:41.936Z,100
2023-02-11T06:34:42.028Z,100
2023-02-11T06:35:41.962Z,100
2023-02-11T06:36:41.932Z,100
2023-02-11T06:37:41.934Z,100
2023-02-11T06:38:41.950Z,100
2023-02-11T06:39:41.937Z,100
2023-02-11T06:41:41.941Z,100
2023-02-11T06:42:41.987Z,100
2023-02-11T06:43:42.052Z,100
2023-02-11T06:44:50.277Z,100
2023-02-11T06:45:50.613Z,100
2023-02-11T06:46:50.397Z,100
2023-02-11T06:47:50.294Z,100
2023-02-11T06:48:50.264Z,100
2023-02-11T06:49:50.319Z,100
2023-02-11T06:50:50.258Z,100
2023-02-11T06:51:50.266Z,100
2023-02-11T06:52:45.153Z,100
2023-02-11T06:53:50.278Z,100
2023-02-11T06:54:50.260Z,100
2023-02-11T06:55:50.702Z,100
2023-02-11T06:56:50.324Z,100
2023-02-11T06:57:50.279Z,100
2023-02-11T06:58:50.287Z,100
2023-02-11T06:59:50.291Z,100
2023-02-11T07:03:37.305Z,100
2023-02-11T07:04:51.388Z,100
2023-02-11T07:08:33.739Z,100
2023-02-11T07:13:30.227Z,100
2023-02-11T07:16:35.595Z,100
2023-02-11T07:22:36.260Z,100
2023-02-11T07:22:50.944Z,100
2023-02-11T08:05:41.970Z,100
2023-02-11T08:06:41.996Z,100
2023-02-11T08:07:41.970Z,100
2023-02-11T08:08:41.954Z,100
2023-02-11T08:09:42.185Z,100
2023-02-11T08:10:41.951Z,100
2023-02-11T08:11:41.948Z,100
2023-02-11T08:12:41.951Z,100
2023-02-11T08:13:41.946Z,100
2023-02-11T08:14:41.963Z,100
2023-02-11T08:15:41.955Z,100
2023-02-11T08:16:42.090Z,100
2023-02-11T08:17:41.979Z,100
2023-02-11T08:18:41.957Z,100
2023-02-11T08:19:42.029Z,100
2023-02-11T08:20:50.568Z,100
2023-02-11T08:21:50.312Z,100
2023-02-11T08:22:50.289Z,100
2023-02-11T08:23:50.273Z,100
2023-02-11T08:24:52.364Z,100
2023-02-11T08:25:50.281Z,100
2023-02-11T08:26:50.278Z,100
2023-02-11T08:27:50.280Z,100
2023-02-11T08:28:50.298Z,100
2023-02-11T08:29:50.321Z,100
2023-02-11T08:30:50.633Z,100
2023-02-11T08:31:50.301Z,100
2023-02-11T08:32:50.284Z,100
2023-02-11T08:33:50.288Z,100
2023-02-11T08:34:51.938Z,100
2023-02-11T08:39:51.381Z,100
2023-02-11T08:43:33.748Z,100
2023-02-11T08:48:30.276Z,100
2023-02-11T08:51:35.561Z,100
2023-02-11T08:58:42.400Z,100
2023-02-11T08:59:44.115Z,100
2023-02-11T09:00:42.010Z,100
2023-02-11T09:01:42.067Z,100
2023-02-11T09:02:42.040Z,100
2023-02-11T09:03:41.963Z,100
2023-02-11T09:04:41.966Z,100
2023-02-11T09:06:41.968Z,100
2023-02-11T09:07:41.983Z,100
2023-02-11T09:08:43.719Z,100
2023-02-11T09:09:41.969Z,100
2023-02-11T09:10:41.967Z,100
2023-02-11T09:11:41.976Z,100
2023-02-11T09:12:41.969Z,100
2023-02-11T09:13:41.984Z,100
2023-02-11T09:14:41.985Z,100
2023-02-11T09:16:42.027Z,100
2023-02-11T09:17:41.970Z,100
2023-02-11T09:20:41.987Z,100
2023-02-11T09:21:41.977Z,100
2023-02-11T09:22:41.976Z,100
2023-02-11T09:23:42.004Z,100
2023-02-11T09:24:42.022Z,100
2023-02-11T09:25:41.977Z,100
2023-02-11T09:26:41.975Z,100
2023-02-11T09:27:41.977Z,100
2023-02-11T09:28:41.975Z,100
2023-02-11T09:29:42.026Z,100
2023-02-11T09:30:42.086Z,100
2023-02-11T09:31:42.121Z,100
2023-02-11T09:32:41.984Z,100
2023-02-11T09:33:41.984Z,100
2023-02-11T09:34:41.975Z,100
2023-02-11T09:35:41.967Z,100
2023-02-11T09:36:41.974Z,100
2023-02-11T09:37:41.973Z,100
2023-02-11T09:38:42.000Z,100
2023-02-11T09:40:50.735Z,100
2023-02-11T09:41:50.317Z,100
2023-02-11T09:42:50.313Z,100
2023-02-11T09:43:50.295Z,100
2023-02-11T09:44:50.304Z,100
2023-02-11T09:45:50.356Z,100
2023-02-11T09:46:50.313Z,100
2023-02-11T09:47:50.305Z,100
2023-02-11T09:48:50.309Z,100
2023-02-11T09:49:50.309Z,100
2023-02-11T09:50:50.649Z,100
2023-02-11T09:51:50.306Z,100
2023-02-11T09:52:50.307Z,100
2023-02-11T09:53:50.304Z,100
2023-02-11T09:54:50.341Z,100
2023-02-11T09:55:50.304Z,100
2023-02-11T09:59:37.281Z,100
2023-02-11T10:07:40.080Z,100
2023-02-11T10:26:34.453Z,100
2023-02-11T10:47:41.989Z,100
2023-02-11T10:48:42.038Z,100
2023-02-11T10:49:41.995Z,100
2023-02-11T10:51:42.003Z,100
2023-02-11T10:52:41.999Z,100
2023-02-11T10:53:42.003Z,100
2023-02-11T10:54:42.007Z,100
2023-02-11T10:55:42.010Z,100
2023-02-11T10:56:42.031Z,100
2023-02-11T10:57:42.009Z,100
2023-02-11T10:58:42.036Z,100
2023-02-11T10:59:42.045Z,100
2023-02-11T11:00:42.003Z,100
2023-02-11T11:02:42.086Z,100
2023-02-11T11:03:50.325Z,100
2023-02-11T11:04:50.357Z,100
2023-02-11T11:05:50.346Z,100
2023-02-11T11:06:50.349Z,100
2023-02-11T11:07:50.330Z,100
2023-02-11T11:08:50.401Z,100
2023-02-11T11:09:50.328Z,100
2023-02-11T11:10:50.642Z,100
2023-02-11T11:11:50.364Z,100
2023-02-11T11:12:50.329Z,100
2023-02-11T11:13:50.349Z,100
2023-02-11T11:14:50.347Z,100
2023-02-11T11:15:50.364Z,100
2023-02-11T11:16:50.362Z,100
2023-02-11T11:17:50.330Z,100
2023-02-11T11:18:50.531Z,100
2023-02-11T11:23:40.432Z,100
2023-02-11T11:47:34.577Z,100
2023-02-11T12:09:42.061Z,100
2023-02-11T12:10:42.007Z,100
2023-02-11T12:11:42.007Z,100
2023-02-11T12:12:42.013Z,100
2023-02-11T12:13:42.047Z,100
2023-02-11T12:14:42.056Z,100
2023-02-11T12:15:42.018Z,100
2023-02-11T12:16:42.117Z,100
2023-02-11T12:17:42.013Z,100
2023-02-11T12:18:42.035Z,100
2023-02-11T12:19:42.018Z,100
2023-02-11T12:20:42.027Z,100
2023-02-11T12:21:42.017Z,100
2023-02-11T12:22:42.017Z,100
2023-02-11T12:23:42.012Z,100
2023-02-11T12:24:42.106Z,100
2023-02-11T12:25:50.346Z,100
2023-02-11T12:26:50.346Z,100
2023-02-11T12:27:50.365Z,100
2023-02-11T12:28:50.362Z,100
2023-02-11T12:29:50.334Z,100
2023-02-11T12:30:50.794Z,100
2023-02-11T12:31:50.409Z,100
2023-02-11T12:32:50.369Z,100
2023-02-11T12:33:50.348Z,100
2023-02-11T12:34:50.346Z,100
2023-02-11T12:35:50.349Z,100
2023-02-11T12:36:50.363Z,100
2023-02-11T12:37:50.342Z,100
2023-02-11T12:38:50.343Z,100
2023-02-11T12:39:50.364Z,100
2023-02-11T12:40:50.988Z,100
2023-02-11T12:44:37.008Z,100
2023-02-11T12:44:51.727Z,100
2023-02-11T13:04:39.975Z,100
2023-02-11T13:08:34.529Z,100
2023-02-11T13:31:42.170Z,100
2023-02-11T13:32:42.056Z,100
2023-02-11T13:33:42.046Z,100
2023-02-11T13:34:42.072Z,100
2023-02-11T13:35:42.038Z,100
2023-02-11T13:36:42.049Z,100
2023-02-11T13:38:42.040Z,100
2023-02-11T13:40:42.047Z,100
2023-02-11T13:41:42.058Z,100
2023-02-11T13:42:42.045Z,100
2023-02-11T13:43:42.048Z,100
2023-02-11T13:44:42.047Z,100
2023-02-11T13:45:42.091Z,100
2023-02-11T13:46:42.046Z,100
2023-02-11T13:47:52.704Z,100
2023-02-11T13:48:50.392Z,100
2023-02-11T13:49:50.392Z,100
2023-02-11T13:50:50.734Z,100
2023-02-11T13:51:50.378Z,100
2023-02-11T13:52:50.405Z,100
2023-02-11T13:53:50.386Z,100
2023-02-11T13:54:50.526Z,100
2023-02-11T13:55:50.384Z,100
2023-02-11T13:56:50.370Z,100
2023-02-11T13:57:50.371Z,100
2023-02-11T13:58:50.376Z,100
2023-02-11T13:59:50.373Z,100
2023-02-11T14:00:50.780Z,100
2023-02-11T14:01:50.373Z,100
2023-02-11T14:02:50.491Z,100
2023-02-11T14:06:37.394Z,99.8
2023-02-11T14:07:51.516Z,100
2023-02-11T14:11:33.887Z,99.6
2023-02-11T14:16:37.942Z,99.9
2023-02-11T14:19:35.733Z,99.4
2023-02-11T14:25:31.232Z,100
2023-02-11T14:26:43.596Z,100
2023-02-11T15:08:42.096Z,97.7
2023-02-11T15:09:42.084Z,97.9
2023-02-11T15:10:42.072Z,97.7
2023-02-11T15:11:42.076Z,97.6
2023-02-11T15:12:42.072Z,97.8
2023-02-11T15:13:42.079Z,97.9
2023-02-11T15:15:42.118Z,98.1
2023-02-11T15:16:42.076Z,98
2023-02-11T15:17:42.102Z,98.1
2023-02-11T15:18:42.123Z,98.2
2023-02-11T15:19:42.080Z,98.1
2023-02-11T15:20:42.073Z,97.8
2023-02-11T15:22:42.078Z,97.6
2023-02-11T15:23:42.070Z,97.6
2023-02-11T15:24:50.471Z,97.7
2023-02-11T15:25:50.405Z,98.1
2023-02-11T15:26:50.411Z,98.3
2023-02-11T15:27:50.416Z,98.4
2023-02-11T15:28:50.413Z,98.7
2023-02-11T15:29:50.429Z,98.9
2023-02-11T15:30:50.973Z,99
2023-02-11T15:31:50.655Z,99.3
2023-02-11T15:32:50.430Z,99
2023-02-11T15:33:50.418Z,99.4
2023-02-11T15:34:50.436Z,99.6
2023-02-11T15:35:50.408Z,99.7
2023-02-11T15:36:50.416Z,99.6
2023-02-11T15:37:50.791Z,99.5
2023-02-11T15:38:50.462Z,99.5
2023-02-11T15:39:50.444Z,99.5
2023-02-11T15:40:50.894Z,99.5
2023-02-11T15:43:10.668Z,99.6
2023-02-11T15:45:38.908Z,99.7
2023-02-11T15:46:53.057Z,100
2023-02-11T16:35:42.162Z,100
2023-02-11T16:36:42.098Z,100
2023-02-11T16:37:42.204Z,100
2023-02-11T16:38:42.104Z,100
2023-02-11T16:39:42.107Z,100
2023-02-11T16:40:42.108Z,100
2023-02-11T16:41:36.685Z,100
2023-02-11T16:42:42.130Z,100
2023-02-11T16:43:42.102Z,100
2023-02-11T16:44:42.104Z,100
2023-02-11T16:45:42.095Z,100
2023-02-11T16:46:42.221Z,100
2023-02-11T16:48:42.093Z,100
2023-02-11T16:49:42.137Z,100
2023-02-11T16:50:42.196Z,100
2023-02-11T16:51:50.443Z,100
2023-02-11T16:52:50.431Z,100
2023-02-11T16:53:50.443Z,100
2023-02-11T16:54:50.445Z,100
2023-02-11T16:55:50.431Z,100
2023-02-11T16:56:50.443Z,100
2023-02-11T16:57:50.450Z,100
2023-02-11T16:58:50.455Z,100
2023-02-11T16:59:50.436Z,100
2023-02-11T17:00:50.815Z,100
2023-02-11T17:01:50.461Z,100
2023-02-11T17:02:50.421Z,100
2023-02-11T17:03:50.437Z,100
2023-02-11T17:04:50.551Z,100
2023-02-11T17:05:55.608Z,100
2023-02-11T17:06:50.445Z,100
2023-02-11T17:10:37.431Z,100
2023-02-11T17:11:51.528Z,100
2023-02-11T17:15:33.902Z,100
2023-02-11T17:20:30.428Z,100
2023-02-11T17:23:35.713Z,100
2023-02-11T17:29:30.409Z,100
2023-02-11T17:29:51.299Z,100
2023-02-11T17:30:42.321Z,100
2023-02-11T17:32:34.650Z,100
2023-02-11T18:12:42.119Z,100
2023-02-11T18:13:42.113Z,100
2023-02-11T18:14:42.183Z,100
2023-02-11T18:15:42.132Z,100
2023-02-11T18:16:42.163Z,100
2023-02-11T18:17:42.119Z,100
2023-02-11T18:18:42.124Z,100
2023-02-11T18:19:42.117Z,100
2023-02-11T18:21:42.147Z,100
2023-02-11T18:22:42.117Z,100
2023-02-11T18:23:42.139Z,100
2023-02-11T18:24:42.125Z,100
2023-02-11T18:25:42.294Z,100
2023-02-11T18:26:42.146Z,100
2023-02-11T18:27:42.214Z,100
2023-02-11T18:28:50.471Z,100
2023-02-11T18:29:50.454Z,100
2023-02-11T18:30:50.472Z,100
2023-02-11T18:31:50.609Z,100
2023-02-11T18:32:50.457Z,100
2023-02-11T18:33:50.467Z,100
2023-02-11T18:34:50.454Z,100
2023-02-11T18:35:50.918Z,100
2023-02-11T18:36:50.487Z,100
2023-02-11T18:37:50.452Z,100
2023-02-11T18:38:50.456Z,100
2023-02-11T18:39:50.475Z,100
2023-02-11T18:40:50.560Z,100
2023-02-11T18:41:50.477Z,100
2023-02-11T18:42:50.480Z,100
2023-02-11T19:03:34.752Z,100
2023-02-11T19:32:42.151Z,100
2023-02-11T19:33:42.165Z,100
2023-02-11T19:34:42.146Z,100
2023-02-11T19:35:42.156Z,100
2023-02-11T19:36:42.221Z,100
2023-02-11T19:37:42.152Z,100
2023-02-11T19:38:42.178Z,100
2023-02-11T19:39:42.157Z,100
2023-02-11T19:40:42.159Z,100
2023-02-11T19:41:42.175Z,100
2023-02-11T19:42:42.151Z,100
2023-02-11T19:43:42.170Z,100
2023-02-11T19:45:42.152Z,100
2023-02-11T19:46:42.262Z,100
2023-02-11T19:47:50.484Z,100
2023-02-11T19:48:50.561Z,100
2023-02-11T19:49:50.484Z,100
2023-02-11T19:50:50.499Z,100
2023-02-11T19:51:50.494Z,100
2023-02-11T19:52:50.491Z,100
2023-02-11T19:53:50.506Z,100
2023-02-11T19:54:50.485Z,100
2023-02-11T19:55:50.791Z,100
2023-02-11T19:56:50.524Z,100
2023-02-11T19:57:50.516Z,100
2023-02-11T19:58:50.497Z,100
2023-02-11T19:59:50.506Z,100
2023-02-11T20:00:50.518Z,100
2023-02-11T20:01:50.660Z,100
2023-02-11T20:02:50.580Z,100
2023-02-11T21:15:42.237Z,100
2023-02-11T21:16:42.189Z,100
2023-02-11T21:17:42.206Z,100
2023-02-11T21:18:42.180Z,100
2023-02-11T21:20:42.189Z,100
2023-02-11T21:21:42.188Z,100
2023-02-11T21:22:42.184Z,100
2023-02-11T21:23:42.183Z,100
2023-02-11T21:24:42.222Z,100
2023-02-11T21:25:42.192Z,100
2023-02-11T21:26:42.244Z,100
2023-02-11T21:28:42.290Z,100
2023-02-11T21:29:53.523Z,100
2023-02-11T21:30:42.253Z,100
2023-02-11T21:31:50.541Z,100
2023-02-11T21:32:50.524Z,100
2023-02-11T21:33:50.514Z,100
2023-02-11T21:34:50.595Z,100
2023-02-11T21:35:50.521Z,100
2023-02-11T21:36:50.550Z,100
2023-02-11T21:37:50.527Z,100
2023-02-11T21:38:50.514Z,100
2023-02-11T21:39:50.525Z,100
2023-02-11T21:40:50.532Z,100
2023-02-11T21:41:50.573Z,100
2023-02-11T21:42:50.517Z,100
2023-02-11T21:43:50.530Z,100
2023-02-11T21:44:50.526Z,100
2023-02-11T21:45:50.599Z,100
2023-02-11T21:46:50.768Z,100
2023-02-11T21:50:37.497Z,100
2023-02-11T21:51:51.611Z,100
2023-02-11T21:55:33.992Z,100
2023-02-11T22:00:30.565Z,100
2023-02-11T22:03:35.803Z,100
2023-02-11T22:48:42.208Z,100
2023-02-11T22:49:42.208Z,100
2023-02-11T22:50:42.272Z,100
2023-02-11T22:51:42.209Z,100
2023-02-11T22:52:42.204Z,100
2023-02-11T22:53:42.208Z,100
2023-02-11T22:54:42.219Z,100
2023-02-11T22:55:42.204Z,100
2023-02-11T22:56:42.213Z,100
2023-02-11T22:57:42.213Z,100
2023-02-11T22:58:42.227Z,100
2023-02-11T22:59:42.210Z,100
2023-02-11T23:00:42.216Z,100
2023-02-11T23:01:42.305Z,100
2023-02-11T23:03:42.258Z,100
2023-02-11T23:04:50.542Z,100
2023-02-11T23:05:50.540Z,100
2023-02-11T23:07:50.538Z,100
2023-02-11T23:08:50.546Z,100
2023-02-11T23:09:50.663Z,100
2023-02-11T23:10:50.537Z,100
2023-02-11T23:11:50.537Z,100
2023-02-11T23:12:50.538Z,100
2023-02-11T23:13:50.567Z,100
2023-02-11T23:14:50.538Z,100
2023-02-11T23:15:50.544Z,100
2023-02-11T23:17:00.118Z,100
2023-02-11T23:17:50.549Z,100
2023-02-11T23:18:50.557Z,100
2023-02-11T23:19:50.744Z,100
2023-02-11T23:23:37.524Z,100
2023-02-11T23:24:51.660Z,100
2023-02-11T23:28:34.136Z,100
2023-02-11T23:33:30.198Z,100
2023-02-11T23:33:51.759Z,100
